sensor_id;sensor_type;location;lat;lon;timestamp;P1;durP1;ratioP1;P2;durP2;ratioP2
39448;SDS011;25151;45.566;9.382;2022-12-10T00:02:04;3.70;;;2.42;;
39448;SDS011;25151;45.566;9.382;2022-12-10T00:05:05;5.38;;;2.70;;
39448;SDS011;25151;45.566;9.382;2022-12-10T00:08:06;4.40;;;2.53;;
39448;SDS011;25151;45.566;9.382;2022-12-10T00:11:08;6.00;;;2.67;;
39448;SDS011;25151;45.566;9.382;2022-12-10T00:14:11;5.35;;;2.63;;
39448;SDS011;25151;45.566;9.382;2022-12-10T00:17:13;3.33;;;2.40;;
39448;SDS011;25151;45.566;9.382;2022-12-10T00:20:14;5.20;;;2.42;;
39448;SDS011;25151;45.566;9.382;2022-12-10T00:23:14;2.95;;;2.30;;
39448;SDS011;25151;45.566;9.382;2022-12-10T00:26:25;3.30;;;2.30;;
39448;SDS011;25151;45.566;9.382;2022-12-10T00:29:28;4.85;;;2.35;;
39448;SDS011;25151;45.566;9.382;2022-12-10T00:32:29;3.85;;;2.20;;
39448;SDS011;25151;45.566;9.382;2022-12-10T00:35:29;4.57;;;2.20;;
39448;SDS011;25151;45.566;9.382;2022-12-10T00:38:31;4.60;;;2.35;;
39448;SDS011;25151;45.566;9.382;2022-12-10T00:41:33;4.72;;;2.22;;
39448;SDS011;25151;45.566;9.382;2022-12-10T00:44:33;3.47;;;2.30;;
39448;SDS011;25151;45.566;9.382;2022-12-10T00:47:34;4.10;;;2.58;;
39448;SDS011;25151;45.566;9.382;2022-12-10T00:50:35;3.58;;;2.00;;
39448;SDS011;25151;45.566;9.382;2022-12-10T00:53:36;4.38;;;2.42;;
39448;SDS011;25151;45.566;9.382;2022-12-10T00:56:38;4.05;;;2.40;;
39448;SDS011;25151;45.566;9.382;2022-12-10T00:59:39;4.28;;;2.22;;
39448;SDS011;25151;45.566;9.382;2022-12-10T01:02:39;5.60;;;2.40;;
39448;SDS011;25151;45.566;9.382;2022-12-10T01:05:40;3.35;;;2.50;;
39448;SDS011;25151;45.566;9.382;2022-12-10T01:08:41;8.13;;;2.75;;
39448;SDS011;25151;45.566;9.382;2022-12-10T01:11:43;5.85;;;2.30;;
39448;SDS011;25151;45.566;9.382;2022-12-10T01:14:45;3.65;;;2.22;;
39448;SDS011;25151;45.566;9.382;2022-12-10T01:17:46;4.40;;;2.50;;
39448;SDS011;25151;45.566;9.382;2022-12-10T01:20:47;4.50;;;2.22;;
39448;SDS011;25151;45.566;9.382;2022-12-10T01:23:48;3.67;;;2.55;;
39448;SDS011;25151;45.566;9.382;2022-12-10T01:26:50;3.60;;;2.20;;
39448;SDS011;25151;45.566;9.382;2022-12-10T01:29:51;3.53;;;2.53;;
39448;SDS011;25151;45.566;9.382;2022-12-10T01:32:54;3.63;;;2.58;;
39448;SDS011;25151;45.566;9.382;2022-12-10T01:35:55;4.10;;;2.40;;
39448;SDS011;25151;45.566;9.382;2022-12-10T01:38:55;3.28;;;2.00;;
39448;SDS011;25151;45.566;9.382;2022-12-10T01:41:58;3.90;;;2.20;;
39448;SDS011;25151;45.566;9.382;2022-12-10T01:45:01;4.20;;;2.30;;
39448;SDS011;25151;45.566;9.382;2022-12-10T01:48:06;3.25;;;2.00;;
39448;SDS011;25151;45.566;9.382;2022-12-10T01:51:07;3.22;;;2.30;;
39448;SDS011;25151;45.566;9.382;2022-12-10T01:54:11;3.67;;;2.33;;
39448;SDS011;25151;45.566;9.382;2022-12-10T01:57:18;3.78;;;2.08;;
39448;SDS011;25151;45.566;9.382;2022-12-10T02:00:21;2.95;;;2.55;;
39448;SDS011;25151;45.566;9.382;2022-12-10T02:03:29;2.70;;;2.17;;
39448;SDS011;25151;45.566;9.382;2022-12-10T02:07:09;3.15;;;2.20;;
39448;SDS011;25151;45.566;9.382;2022-12-10T02:10:46;2.88;;;2.30;;
39448;SDS011;25151;45.566;9.382;2022-12-10T02:14:18;4.82;;;2.38;;
39448;SDS011;25151;45.566;9.382;2022-12-10T02:17:29;2.78;;;2.10;;
39448;SDS011;25151;45.566;9.382;2022-12-10T02:20:39;3.13;;;2.30;;
39448;SDS011;25151;45.566;9.382;2022-12-10T02:23:46;3.50;;;2.45;;
39448;SDS011;25151;45.566;9.382;2022-12-10T02:30:13;3.15;;;2.17;;
39448;SDS011;25151;45.566;9.382;2022-12-10T02:33:14;3.17;;;2.17;;
39448;SDS011;25151;45.566;9.382;2022-12-10T02:36:21;3.50;;;2.00;;
39448;SDS011;25151;45.566;9.382;2022-12-10T02:39:25;3.15;;;2.22;;
39448;SDS011;25151;45.566;9.382;2022-12-10T02:42:32;3.10;;;2.22;;
39448;SDS011;25151;45.566;9.382;2022-12-10T02:45:37;3.72;;;1.83;;
39448;SDS011;25151;45.566;9.382;2022-12-10T02:48:39;2.70;;;2.15;;
39448;SDS011;25151;45.566;9.382;2022-12-10T02:51:41;2.85;;;2.30;;
39448;SDS011;25151;45.566;9.382;2022-12-10T02:54:45;2.45;;;2.13;;
39448;SDS011;25151;45.566;9.382;2022-12-10T03:01:01;3.70;;;2.20;;
39448;SDS011;25151;45.566;9.382;2022-12-10T03:04:25;3.45;;;2.25;;
39448;SDS011;25151;45.566;9.382;2022-12-10T03:07:33;3.75;;;2.00;;
39448;SDS011;25151;45.566;9.382;2022-12-10T03:10:44;3.10;;;2.25;;
39448;SDS011;25151;45.566;9.382;2022-12-10T03:17:22;2.72;;;1.80;;
39448;SDS011;25151;45.566;9.382;2022-12-10T03:20:22;2.67;;;2.17;;
39448;SDS011;25151;45.566;9.382;2022-12-10T03:23:25;3.65;;;2.35;;
39448;SDS011;25151;45.566;9.382;2022-12-10T03:26:28;3.08;;;2.22;;
39448;SDS011;25151;45.566;9.382;2022-12-10T03:29:39;3.85;;;2.00;;
39448;SDS011;25151;45.566;9.382;2022-12-10T21:25:25;7.30;;;6.50;;
39448;SDS011;25151;45.566;9.382;2022-12-10T21:28:26;9.35;;;6.68;;
39448;SDS011;25151;45.566;9.382;2022-12-10T21:31:27;7.60;;;6.05;;
39448;SDS011;25151;45.566;9.382;2022-12-10T21:34:28;7.00;;;6.00;;
39448;SDS011;25151;45.566;9.382;2022-12-10T21:37:29;6.68;;;6.00;;
39448;SDS011;25151;45.566;9.382;2022-12-10T21:40:30;7.50;;;6.47;;
39448;SDS011;25151;45.566;9.382;2022-12-10T21:43:31;9.02;;;6.32;;
39448;SDS011;25151;45.566;9.382;2022-12-10T21:46:33;7.82;;;6.13;;
39448;SDS011;25151;45.566;9.382;2022-12-10T21:49:34;8.52;;;6.82;;
39448;SDS011;25151;45.566;9.382;2022-12-10T21:52:35;6.78;;;6.05;;
39448;SDS011;25151;45.566;9.382;2022-12-10T21:55:36;7.63;;;6.40;;
39448;SDS011;25151;45.566;9.382;2022-12-10T21:58:39;7.65;;;6.38;;
39448;SDS011;25151;45.566;9.382;2022-12-10T22:01:39;9.05;;;6.43;;
39448;SDS011;25151;45.566;9.382;2022-12-10T22:04:40;8.23;;;6.25;;
39448;SDS011;25151;45.566;9.382;2022-12-10T22:07:41;7.30;;;5.85;;
39448;SDS011;25151;45.566;9.382;2022-12-10T22:10:44;8.05;;;6.70;;
39448;SDS011;25151;45.566;9.382;2022-12-10T22:13:45;7.60;;;6.43;;
39448;SDS011;25151;45.566;9.382;2022-12-10T22:16:45;7.30;;;6.35;;
39448;SDS011;25151;45.566;9.382;2022-12-10T22:19:46;8.30;;;6.68;;
39448;SDS011;25151;45.566;9.382;2022-12-10T22:22:47;8.70;;;6.55;;
39448;SDS011;25151;45.566;9.382;2022-12-10T22:25:48;6.60;;;5.60;;
39448;SDS011;25151;45.566;9.382;2022-12-10T22:28:49;8.57;;;6.32;;
39448;SDS011;25151;45.566;9.382;2022-12-10T22:31:50;8.65;;;6.20;;
39448;SDS011;25151;45.566;9.382;2022-12-10T22:34:50;7.13;;;5.93;;
39448;SDS011;25151;45.566;9.382;2022-12-10T22:37:51;7.15;;;6.45;;
39448;SDS011;25151;45.566;9.382;2022-12-10T22:40:52;6.50;;;5.47;;
39448;SDS011;25151;45.566;9.382;2022-12-10T22:43:53;8.48;;;5.88;;
39448;SDS011;25151;45.566;9.382;2022-12-10T22:46:53;7.65;;;5.88;;
39448;SDS011;25151;45.566;9.382;2022-12-10T22:49:54;9.00;;;6.22;;
39448;SDS011;25151;45.566;9.382;2022-12-10T22:52:56;6.20;;;5.50;;
39448;SDS011;25151;45.566;9.382;2022-12-10T22:56:01;7.10;;;6.40;;
39448;SDS011;25151;45.566;9.382;2022-12-10T22:59:05;9.32;;;6.68;;
39448;SDS011;25151;45.566;9.382;2022-12-10T23:02:06;7.97;;;6.50;;
39448;SDS011;25151;45.566;9.382;2022-12-10T23:05:07;7.38;;;5.97;;
39448;SDS011;25151;45.566;9.382;2022-12-10T23:08:08;10.02;;;5.85;;
39448;SDS011;25151;45.566;9.382;2022-12-10T23:11:09;8.07;;;6.07;;
39448;SDS011;25151;45.566;9.382;2022-12-10T23:14:12;8.60;;;5.60;;
39448;SDS011;25151;45.566;9.382;2022-12-10T23:17:12;6.65;;;5.82;;
39448;SDS011;25151;45.566;9.382;2022-12-10T23:20:13;10.02;;;7.00;;
39448;SDS011;25151;45.566;9.382;2022-12-10T23:23:14;7.68;;;5.45;;
39448;SDS011;25151;45.566;9.382;2022-12-10T23:26:17;9.50;;;5.43;;
39448;SDS011;25151;45.566;9.382;2022-12-10T23:29:18;6.80;;;5.80;;
39448;SDS011;25151;45.566;9.382;2022-12-10T23:32:19;7.40;;;5.97;;
39448;SDS011;25151;45.566;9.382;2022-12-10T23:35:20;7.05;;;6.18;;
39448;SDS011;25151;45.566;9.382;2022-12-10T23:38:21;7.15;;;6.25;;
39448;SDS011;25151;45.566;9.382;2022-12-10T23:41:22;9.30;;;6.10;;
39448;SDS011;25151;45.566;9.382;2022-12-10T23:44:22;6.20;;;5.05;;
39448;SDS011;25151;45.566;9.382;2022-12-10T23:47:24;7.63;;;6.07;;
39448;SDS011;25151;45.566;9.382;2022-12-10T23:50:25;6.13;;;5.22;;
39448;SDS011;25151;45.566;9.382;2022-12-10T23:53:26;9.70;;;6.18;;
39448;SDS011;25151;45.566;9.382;2022-12-10T23:56:27;7.13;;;5.55;;
39448;SDS011;25151;45.566;9.382;2022-12-10T23:59:28;8.05;;;6.25;;
